sensor_id;sensor_type;location;lat;lon;timestamp;P1;durP1;ratioP1;P2;durP2;ratioP2
37983;SDS011;64625;50.882;4.376;2023-04-15T00:00:13;3.78;;;2.33;;
37983;SDS011;64625;50.882;4.376;2023-04-15T00:02:40;4.80;;;2.38;;
37983;SDS011;64625;50.882;4.376;2023-04-15T00:05:06;11.85;;;2.95;;
37983;SDS011;64625;50.882;4.376;2023-04-15T00:07:32;3.72;;;2.58;;
37983;SDS011;64625;50.882;4.376;2023-04-15T00:09:58;5.93;;;2.92;;
37983;SDS011;64625;50.882;4.376;2023-04-15T00:12:24;5.97;;;2.40;;
37983;SDS011;64625;50.882;4.376;2023-04-15T00:14:51;4.85;;;2.40;;
37983;SDS011;64625;50.882;4.376;2023-04-15T00:17:17;7.75;;;2.40;;
37983;SDS011;64625;50.882;4.376;2023-04-15T00:19:43;6.00;;;2.92;;
37983;SDS011;64625;50.882;4.376;2023-04-15T00:22:10;5.55;;;2.88;;
37983;SDS011;64625;50.882;4.376;2023-04-15T00:24:36;4.63;;;3.10;;
37983;SDS011;64625;50.882;4.376;2023-04-15T00:27:02;11.02;;;4.18;;
37983;SDS011;64625;50.882;4.376;2023-04-15T00:29:29;6.00;;;4.03;;
37983;SDS011;64625;50.882;4.376;2023-04-15T00:31:54;7.15;;;3.67;;
37983;SDS011;64625;50.882;4.376;2023-04-15T00:34:25;6.82;;;3.92;;
37983;SDS011;64625;50.882;4.376;2023-04-15T00:36:52;13.63;;;3.67;;
37983;SDS011;64625;50.882;4.376;2023-04-15T00:39:19;15.52;;;4.82;;
37983;SDS011;64625;50.882;4.376;2023-04-15T00:41:45;11.77;;;4.05;;
37983;SDS011;64625;50.882;4.376;2023-04-15T00:44:11;4.72;;;2.85;;
37983;SDS011;64625;50.882;4.376;2023-04-15T00:46:37;9.00;;;3.10;;
37983;SDS011;64625;50.882;4.376;2023-04-15T00:49:04;5.43;;;3.42;;
37983;SDS011;64625;50.882;4.376;2023-04-15T00:51:31;4.80;;;2.72;;
37983;SDS011;64625;50.882;4.376;2023-04-15T00:54:03;5.15;;;2.50;;
37983;SDS011;64625;50.882;4.376;2023-04-15T00:56:30;6.95;;;2.92;;
37983;SDS011;64625;50.882;4.376;2023-04-15T00:58:59;4.10;;;2.28;;
37983;SDS011;64625;50.882;4.376;2023-04-15T01:01:26;5.68;;;2.92;;
37983;SDS011;64625;50.882;4.376;2023-04-15T01:03:53;5.03;;;2.70;;
37983;SDS011;64625;50.882;4.376;2023-04-15T01:06:21;4.03;;;2.50;;
37983;SDS011;64625;50.882;4.376;2023-04-15T01:08:48;6.72;;;3.35;;
37983;SDS011;64625;50.882;4.376;2023-04-15T01:11:15;6.13;;;2.17;;
37983;SDS011;64625;50.882;4.376;2023-04-15T01:13:42;2.88;;;2.00;;
37983;SDS011;64625;50.882;4.376;2023-04-15T01:16:08;8.05;;;2.70;;
37983;SDS011;64625;50.882;4.376;2023-04-15T01:18:34;3.90;;;2.53;;
37983;SDS011;64625;50.882;4.376;2023-04-15T01:21:05;4.75;;;2.53;;
37983;SDS011;64625;50.882;4.376;2023-04-15T01:23:32;3.35;;;2.53;;
37983;SDS011;64625;50.882;4.376;2023-04-15T01:26:01;3.53;;;2.08;;
37983;SDS011;64625;50.882;4.376;2023-04-15T01:28:27;3.78;;;2.47;;
37983;SDS011;64625;50.882;4.376;2023-04-15T01:31:09;3.95;;;2.00;;
37983;SDS011;64625;50.882;4.376;2023-04-15T01:33:40;2.92;;;1.83;;
37983;SDS011;64625;50.882;4.376;2023-04-15T01:36:07;2.42;;;1.45;;
37983;SDS011;64625;50.882;4.376;2023-04-15T01:38:38;3.45;;;2.63;;
37983;SDS011;64625;50.882;4.376;2023-04-15T01:41:04;2.78;;;2.08;;
37983;SDS011;64625;50.882;4.376;2023-04-15T01:43:32;6.03;;;2.22;;
37983;SDS011;64625;50.882;4.376;2023-04-15T01:46:01;2.92;;;2.33;;
37983;SDS011;64625;50.882;4.376;2023-04-15T01:48:27;7.32;;;2.35;;
37983;SDS011;64625;50.882;4.376;2023-04-15T01:50:54;6.22;;;2.50;;
37983;SDS011;64625;50.882;4.376;2023-04-15T01:53:25;6.53;;;2.80;;
37983;SDS011;64625;50.882;4.376;2023-04-15T01:55:51;4.68;;;2.55;;
37983;SDS011;64625;50.882;4.376;2023-04-15T01:58:17;6.50;;;3.17;;
37983;SDS011;64625;50.882;4.376;2023-04-15T02:00:43;7.03;;;3.17;;
37983;SDS011;64625;50.882;4.376;2023-04-15T02:03:09;6.82;;;3.10;;
37983;SDS011;64625;50.882;4.376;2023-04-15T02:05:36;10.70;;;4.22;;
37983;SDS011;64625;50.882;4.376;2023-04-15T02:08:02;18.92;;;5.07;;
37983;SDS011;64625;50.882;4.376;2023-04-15T02:10:28;10.85;;;5.90;;
37983;SDS011;64625;50.882;4.376;2023-04-15T02:12:53;24.02;;;8.02;;
37983;SDS011;64625;50.882;4.376;2023-04-15T02:15:19;26.83;;;8.77;;
37983;SDS011;64625;50.882;4.376;2023-04-15T02:17:45;16.25;;;6.68;;
37983;SDS011;64625;50.882;4.376;2023-04-15T02:20:18;21.08;;;7.95;;
37983;SDS011;64625;50.882;4.376;2023-04-15T02:22:45;31.65;;;11.35;;
37983;SDS011;64625;50.882;4.376;2023-04-15T02:25:12;28.70;;;10.07;;
37983;SDS011;64625;50.882;4.376;2023-04-15T02:27:39;25.45;;;9.65;;
37983;SDS011;64625;50.882;4.376;2023-04-15T02:30:05;38.30;;;11.18;;
37983;SDS011;64625;50.882;4.376;2023-04-15T02:32:34;24.40;;;11.50;;
37983;SDS011;64625;50.882;4.376;2023-04-15T02:35:03;20.38;;;9.32;;
37983;SDS011;64625;50.882;4.376;2023-04-15T02:37:29;28.77;;;9.77;;
37983;SDS011;64625;50.882;4.376;2023-04-15T02:39:56;26.85;;;12.00;;
37983;SDS011;64625;50.882;4.376;2023-04-15T02:42:22;26.48;;;11.95;;
37983;SDS011;64625;50.882;4.376;2023-04-15T02:44:51;31.75;;;12.15;;
37983;SDS011;64625;50.882;4.376;2023-04-15T02:47:19;27.60;;;11.55;;
37983;SDS011;64625;50.882;4.376;2023-04-15T02:49:44;28.65;;;12.27;;
37983;SDS011;64625;50.882;4.376;2023-04-15T02:52:10;35.00;;;13.18;;
37983;SDS011;64625;50.882;4.376;2023-04-15T02:54:36;38.20;;;14.48;;
37983;SDS011;64625;50.882;4.376;2023-04-15T02:57:02;38.88;;;13.98;;
37983;SDS011;64625;50.882;4.376;2023-04-15T02:59:30;32.95;;;14.20;;
37983;SDS011;64625;50.882;4.376;2023-04-15T03:01:56;35.90;;;14.50;;
37983;SDS011;64625;50.882;4.376;2023-04-15T03:04:25;38.13;;;14.20;;
37983;SDS011;64625;50.882;4.376;2023-04-15T03:06:51;34.72;;;14.88;;
37983;SDS011;64625;50.882;4.376;2023-04-15T03:09:16;33.40;;;12.52;;
37983;SDS011;64625;50.882;4.376;2023-04-15T03:11:42;34.90;;;13.35;;
37983;SDS011;64625;50.882;4.376;2023-04-15T03:14:08;28.83;;;12.20;;
37983;SDS011;64625;50.882;4.376;2023-04-15T03:16:34;29.65;;;12.43;;
37983;SDS011;64625;50.882;4.376;2023-04-15T03:19:00;24.27;;;11.48;;
37983;SDS011;64625;50.882;4.376;2023-04-15T03:21:26;28.23;;;11.73;;
37983;SDS011;64625;50.882;4.376;2023-04-15T03:23:51;31.73;;;11.77;;
37983;SDS011;64625;50.882;4.376;2023-04-15T03:26:27;25.85;;;9.93;;
37983;SDS011;64625;50.882;4.376;2023-04-15T03:28:54;27.80;;;9.27;;
37983;SDS011;64625;50.882;4.376;2023-04-15T03:31:20;23.75;;;10.75;;
37983;SDS011;64625;50.882;4.376;2023-04-15T03:33:46;26.73;;;9.90;;
37983;SDS011;64625;50.882;4.376;2023-04-15T03:36:12;21.85;;;9.73;;
37983;SDS011;64625;50.882;4.376;2023-04-15T03:38:38;21.15;;;9.55;;
37983;SDS011;64625;50.882;4.376;2023-04-15T03:41:03;18.30;;;10.13;;
37983;SDS011;64625;50.882;4.376;2023-04-15T03:43:30;24.38;;;10.02;;
37983;SDS011;64625;50.882;4.376;2023-04-15T03:45:55;16.92;;;7.60;;
37983;SDS011;64625;50.882;4.376;2023-04-15T03:48:21;14.90;;;7.68;;
37983;SDS011;64625;50.882;4.376;2023-04-15T03:50:47;14.02;;;7.35;;
37983;SDS011;64625;50.882;4.376;2023-04-15T03:53:13;13.52;;;7.72;;
37983;SDS011;64625;50.882;4.376;2023-04-15T03:55:39;15.18;;;6.88;;
37983;SDS011;64625;50.882;4.376;2023-04-15T03:58:05;18.73;;;7.32;;
37983;SDS011;64625;50.882;4.376;2023-04-15T04:00:31;12.45;;;7.55;;
37983;SDS011;64625;50.882;4.376;2023-04-15T04:02:57;15.80;;;7.18;;
37983;SDS011;64625;50.882;4.376;2023-04-15T04:05:22;12.18;;;6.57;;
37983;SDS011;64625;50.882;4.376;2023-04-15T04:07:48;24.80;;;7.95;;
37983;SDS011;64625;50.882;4.376;2023-04-15T04:10:14;25.70;;;7.32;;
37983;SDS011;64625;50.882;4.376;2023-04-15T04:12:40;16.33;;;6.93;;
37983;SDS011;64625;50.882;4.376;2023-04-15T04:15:06;12.88;;;7.28;;
37983;SDS011;64625;50.882;4.376;2023-04-15T04:17:32;16.23;;;7.78;;
37983;SDS011;64625;50.882;4.376;2023-04-15T04:20:01;14.05;;;7.45;;
37983;SDS011;64625;50.882;4.376;2023-04-15T04:22:27;16.13;;;7.28;;
37983;SDS011;64625;50.882;4.376;2023-04-15T04:24:53;15.82;;;7.32;;
37983;SDS011;64625;50.882;4.376;2023-04-15T04:27:19;16.70;;;7.55;;
37983;SDS011;64625;50.882;4.376;2023-04-15T04:29:45;19.38;;;10.55;;
37983;SDS011;64625;50.882;4.376;2023-04-15T04:32:12;22.35;;;6.90;;
37983;SDS011;64625;50.882;4.376;2023-04-15T04:34:37;11.15;;;7.00;;
37983;SDS011;64625;50.882;4.376;2023-04-15T04:37:03;10.07;;;6.53;;
37983;SDS011;64625;50.882;4.376;2023-04-15T04:39:29;16.73;;;6.95;;
37983;SDS011;64625;50.882;4.376;2023-04-15T04:41:55;13.15;;;6.78;;
37983;SDS011;64625;50.882;4.376;2023-04-15T04:44:21;13.32;;;8.52;;
37983;SDS011;64625;50.882;4.376;2023-04-15T04:46:47;16.00;;;7.10;;
37983;SDS011;64625;50.882;4.376;2023-04-15T04:49:12;14.95;;;7.22;;
37983;SDS011;64625;50.882;4.376;2023-04-15T04:51:38;18.10;;;7.93;;
37983;SDS011;64625;50.882;4.376;2023-04-15T04:54:04;14.88;;;8.38;;
37983;SDS011;64625;50.882;4.376;2023-04-15T04:56:30;20.90;;;8.38;;
37983;SDS011;64625;50.882;4.376;2023-04-15T04:58:56;14.77;;;7.55;;
37983;SDS011;64625;50.882;4.376;2023-04-15T05:01:22;12.63;;;7.40;;
37983;SDS011;64625;50.882;4.376;2023-04-15T05:03:47;20.50;;;8.18;;
37983;SDS011;64625;50.882;4.376;2023-04-15T05:06:16;20.33;;;8.70;;
37983;SDS011;64625;50.882;4.376;2023-04-15T05:08:42;13.95;;;7.28;;
37983;SDS011;64625;50.882;4.376;2023-04-15T05:11:07;18.10;;;7.03;;
37983;SDS011;64625;50.882;4.376;2023-04-15T05:13:33;17.90;;;8.65;;
37983;SDS011;64625;50.882;4.376;2023-04-15T05:16:02;12.43;;;7.60;;
37983;SDS011;64625;50.882;4.376;2023-04-15T05:18:31;13.50;;;7.93;;
37983;SDS011;64625;50.882;4.376;2023-04-15T05:20:58;11.13;;;7.05;;
37983;SDS011;64625;50.882;4.376;2023-04-15T05:23:23;17.70;;;8.35;;
37983;SDS011;64625;50.882;4.376;2023-04-15T05:25:49;12.95;;;7.57;;
37983;SDS011;64625;50.882;4.376;2023-04-15T05:28:19;15.38;;;7.85;;
37983;SDS011;64625;50.882;4.376;2023-04-15T05:30:45;20.90;;;8.88;;
37983;SDS011;64625;50.882;4.376;2023-04-15T05:33:11;17.40;;;7.07;;
37983;SDS011;64625;50.882;4.376;2023-04-15T05:35:37;13.50;;;6.47;;
37983;SDS011;64625;50.882;4.376;2023-04-15T05:38:03;12.43;;;6.65;;
37983;SDS011;64625;50.882;4.376;2023-04-15T05:40:31;12.63;;;6.80;;
37983;SDS011;64625;50.882;4.376;2023-04-15T05:42:57;21.98;;;7.43;;
37983;SDS011;64625;50.882;4.376;2023-04-15T05:45:23;17.90;;;8.23;;
37983;SDS011;64625;50.882;4.376;2023-04-15T05:47:49;18.73;;;6.82;;
37983;SDS011;64625;50.882;4.376;2023-04-15T05:50:15;24.13;;;6.75;;
37983;SDS011;64625;50.882;4.376;2023-04-15T05:52:41;16.55;;;6.15;;
37983;SDS011;64625;50.882;4.376;2023-04-15T05:55:06;12.25;;;7.40;;
37983;SDS011;64625;50.882;4.376;2023-04-15T05:57:32;13.00;;;6.40;;
37983;SDS011;64625;50.882;4.376;2023-04-15T05:59:58;14.80;;;7.65;;
37983;SDS011;64625;50.882;4.376;2023-04-15T06:02:24;9.45;;;6.10;;
37983;SDS011;64625;50.882;4.376;2023-04-15T06:04:50;15.68;;;8.00;;
37983;SDS011;64625;50.882;4.376;2023-04-15T06:07:16;12.60;;;7.10;;
37983;SDS011;64625;50.882;4.376;2023-04-15T06:09:42;15.85;;;6.47;;
37983;SDS011;64625;50.882;4.376;2023-04-15T06:12:09;14.88;;;5.72;;
37983;SDS011;64625;50.882;4.376;2023-04-15T06:14:37;11.98;;;6.18;;
37983;SDS011;64625;50.882;4.376;2023-04-15T06:17:03;22.52;;;6.65;;
37983;SDS011;64625;50.882;4.376;2023-04-15T06:19:29;15.43;;;7.32;;
37983;SDS011;64625;50.882;4.376;2023-04-15T06:21:55;16.40;;;7.45;;
37983;SDS011;64625;50.882;4.376;2023-04-15T06:24:21;13.93;;;8.27;;
37983;SDS011;64625;50.882;4.376;2023-04-15T06:26:47;13.73;;;6.53;;
37983;SDS011;64625;50.882;4.376;2023-04-15T06:29:12;16.60;;;7.07;;
37983;SDS011;64625;50.882;4.376;2023-04-15T06:31:38;20.65;;;7.20;;
37983;SDS011;64625;50.882;4.376;2023-04-15T06:34:04;11.82;;;8.63;;
37983;SDS011;64625;50.882;4.376;2023-04-15T06:36:30;15.30;;;7.00;;
37983;SDS011;64625;50.882;4.376;2023-04-15T06:38:56;12.73;;;6.50;;
37983;SDS011;64625;50.882;4.376;2023-04-15T06:41:22;18.10;;;6.43;;
37983;SDS011;64625;50.882;4.376;2023-04-15T06:43:51;14.93;;;5.88;;
37983;SDS011;64625;50.882;4.376;2023-04-15T06:46:17;14.38;;;6.55;;
37983;SDS011;64625;50.882;4.376;2023-04-15T06:48:42;13.30;;;5.70;;
37983;SDS011;64625;50.882;4.376;2023-04-15T06:51:09;15.68;;;6.15;;
37983;SDS011;64625;50.882;4.376;2023-04-15T06:53:35;17.38;;;6.63;;
37983;SDS011;64625;50.882;4.376;2023-04-15T06:56:06;11.60;;;5.90;;
37983;SDS011;64625;50.882;4.376;2023-04-15T06:58:33;13.00;;;6.35;;
37983;SDS011;64625;50.882;4.376;2023-04-15T07:00:59;19.75;;;7.25;;
37983;SDS011;64625;50.882;4.376;2023-04-15T07:03:25;17.13;;;6.63;;
37983;SDS011;64625;50.882;4.376;2023-04-15T07:05:51;12.18;;;6.50;;
37983;SDS011;64625;50.882;4.376;2023-04-15T07:08:18;17.17;;;6.60;;
37983;SDS011;64625;50.882;4.376;2023-04-15T07:10:45;15.85;;;5.93;;
37983;SDS011;64625;50.882;4.376;2023-04-15T07:13:11;15.55;;;6.18;;
37983;SDS011;64625;50.882;4.376;2023-04-15T07:15:37;22.60;;;7.35;;
37983;SDS011;64625;50.882;4.376;2023-04-15T07:18:03;15.60;;;7.20;;
37983;SDS011;64625;50.882;4.376;2023-04-15T07:20:29;14.90;;;6.63;;
37983;SDS011;64625;50.882;4.376;2023-04-15T07:22:55;13.77;;;8.25;;
37983;SDS011;64625;50.882;4.376;2023-04-15T07:25:21;16.40;;;8.30;;
37983;SDS011;64625;50.882;4.376;2023-04-15T07:27:47;14.48;;;6.78;;
37983;SDS011;64625;50.882;4.376;2023-04-15T07:30:13;20.67;;;6.40;;
37983;SDS011;64625;50.882;4.376;2023-04-15T07:32:40;12.80;;;6.78;;
37983;SDS011;64625;50.882;4.376;2023-04-15T07:35:07;16.25;;;7.40;;
37983;SDS011;64625;50.882;4.376;2023-04-15T07:37:34;15.82;;;6.50;;
37983;SDS011;64625;50.882;4.376;2023-04-15T07:40:00;17.92;;;8.02;;
37983;SDS011;64625;50.882;4.376;2023-04-15T07:42:29;12.75;;;7.80;;
37983;SDS011;64625;50.882;4.376;2023-04-15T07:44:55;12.25;;;6.95;;
37983;SDS011;64625;50.882;4.376;2023-04-15T07:47:21;19.98;;;7.70;;
37983;SDS011;64625;50.882;4.376;2023-04-15T07:49:47;16.27;;;8.65;;
37983;SDS011;64625;50.882;4.376;2023-04-15T07:52:16;19.52;;;9.35;;
37983;SDS011;64625;50.882;4.376;2023-04-15T07:54:41;17.35;;;8.70;;
37983;SDS011;64625;50.882;4.376;2023-04-15T07:57:07;12.75;;;8.27;;
37983;SDS011;64625;50.882;4.376;2023-04-15T07:59:33;14.73;;;8.07;;
37983;SDS011;64625;50.882;4.376;2023-04-15T08:01:59;20.60;;;8.55;;
37983;SDS011;64625;50.882;4.376;2023-04-15T08:04:25;22.40;;;9.07;;
37983;SDS011;64625;50.882;4.376;2023-04-15T08:06:51;16.05;;;7.72;;
37983;SDS011;64625;50.882;4.376;2023-04-15T08:09:17;19.15;;;9.27;;
37983;SDS011;64625;50.882;4.376;2023-04-15T08:11:43;15.73;;;9.55;;
37983;SDS011;64625;50.882;4.376;2023-04-15T08:14:09;20.30;;;8.50;;
37983;SDS011;64625;50.882;4.376;2023-04-15T08:16:35;19.13;;;8.50;;
37983;SDS011;64625;50.882;4.376;2023-04-15T08:19:01;18.20;;;10.82;;
37983;SDS011;64625;50.882;4.376;2023-04-15T08:21:27;26.52;;;10.32;;
37983;SDS011;64625;50.882;4.376;2023-04-15T08:23:55;16.67;;;9.35;;
37983;SDS011;64625;50.882;4.376;2023-04-15T08:26:21;23.20;;;10.20;;
37983;SDS011;64625;50.882;4.376;2023-04-15T08:28:47;19.05;;;10.48;;
37983;SDS011;64625;50.882;4.376;2023-04-15T08:31:14;18.52;;;9.95;;
37983;SDS011;64625;50.882;4.376;2023-04-15T08:33:41;14.32;;;9.32;;
37983;SDS011;64625;50.882;4.376;2023-04-15T08:36:07;26.33;;;9.57;;
37983;SDS011;64625;50.882;4.376;2023-04-15T08:38:33;18.13;;;9.43;;
37983;SDS011;64625;50.882;4.376;2023-04-15T08:41:03;16.85;;;8.45;;
37983;SDS011;64625;50.882;4.376;2023-04-15T08:43:56;16.17;;;9.80;;
37983;SDS011;64625;50.882;4.376;2023-04-15T08:46:31;25.50;;;9.85;;
37983;SDS011;64625;50.882;4.376;2023-04-15T08:49:02;17.52;;;9.50;;
37983;SDS011;64625;50.882;4.376;2023-04-15T08:51:29;19.02;;;10.40;;
37983;SDS011;64625;50.882;4.376;2023-04-15T08:53:56;16.90;;;8.45;;
37983;SDS011;64625;50.882;4.376;2023-04-15T08:56:23;21.75;;;10.20;;
37983;SDS011;64625;50.882;4.376;2023-04-15T08:58:53;15.20;;;8.77;;
37983;SDS011;64625;50.882;4.376;2023-04-15T09:01:19;14.40;;;8.70;;
37983;SDS011;64625;50.882;4.376;2023-04-15T09:03:47;21.70;;;10.18;;
37983;SDS011;64625;50.882;4.376;2023-04-15T09:06:17;16.40;;;9.20;;
37983;SDS011;64625;50.882;4.376;2023-04-15T09:08:43;17.38;;;8.52;;
37983;SDS011;64625;50.882;4.376;2023-04-15T09:11:09;21.60;;;9.10;;
37983;SDS011;64625;50.882;4.376;2023-04-15T09:13:36;18.02;;;8.25;;
37983;SDS011;64625;50.882;4.376;2023-04-15T09:16:05;10.82;;;7.63;;
37983;SDS011;64625;50.882;4.376;2023-04-15T09:18:33;14.50;;;8.55;;
37983;SDS011;64625;50.882;4.376;2023-04-15T09:23:35;18.80;;;7.38;;
37983;SDS011;64625;50.882;4.376;2023-04-15T09:26:02;13.95;;;6.75;;
37983;SDS011;64625;50.882;4.376;2023-04-15T09:28:29;12.30;;;5.78;;
37983;SDS011;64625;50.882;4.376;2023-04-15T09:33:24;12.00;;;5.85;;
37983;SDS011;64625;50.882;4.376;2023-04-15T09:35:56;9.10;;;4.32;;
37983;SDS011;64625;50.882;4.376;2023-04-15T09:38:23;8.40;;;4.43;;
37983;SDS011;64625;50.882;4.376;2023-04-15T09:40:49;13.73;;;4.47;;
37983;SDS011;64625;50.882;4.376;2023-04-15T09:43:16;11.23;;;6.63;;
37983;SDS011;64625;50.882;4.376;2023-04-15T09:45:52;11.13;;;5.55;;
37983;SDS011;64625;50.882;4.376;2023-04-15T09:48:22;10.05;;;4.97;;
37983;SDS011;64625;50.882;4.376;2023-04-15T09:50:51;15.38;;;5.85;;
37983;SDS011;64625;50.882;4.376;2023-04-15T09:53:23;13.05;;;6.05;;
37983;SDS011;64625;50.882;4.376;2023-04-15T09:55:51;13.10;;;6.35;;
37983;SDS011;64625;50.882;4.376;2023-04-15T09:58:21;16.20;;;5.35;;
37983;SDS011;64625;50.882;4.376;2023-04-15T10:00:49;10.73;;;5.45;;
37983;SDS011;64625;50.882;4.376;2023-04-15T10:03:20;10.98;;;5.78;;
37983;SDS011;64625;50.882;4.376;2023-04-15T10:05:48;12.52;;;5.97;;
37983;SDS011;64625;50.882;4.376;2023-04-15T10:08:18;11.55;;;6.13;;
37983;SDS011;64625;50.882;4.376;2023-04-15T10:10:46;12.07;;;7.20;;
37983;SDS011;64625;50.882;4.376;2023-04-15T10:13:13;12.82;;;5.85;;
37983;SDS011;64625;50.882;4.376;2023-04-15T10:15:43;8.82;;;5.13;;
37983;SDS011;64625;50.882;4.376;2023-04-15T10:18:14;13.15;;;6.38;;
37983;SDS011;64625;50.882;4.376;2023-04-15T10:20:43;7.28;;;4.10;;
37983;SDS011;64625;50.882;4.376;2023-04-15T10:23:10;15.32;;;5.25;;
37983;SDS011;64625;50.882;4.376;2023-04-15T10:25:37;7.38;;;4.60;;
37983;SDS011;64625;50.882;4.376;2023-04-15T10:28:03;14.68;;;4.45;;
37983;SDS011;64625;50.882;4.376;2023-04-15T10:30:32;12.27;;;4.68;;
37983;SDS011;64625;50.882;4.376;2023-04-15T10:32:58;6.50;;;4.75;;
37983;SDS011;64625;50.882;4.376;2023-04-15T10:35:28;12.95;;;4.68;;
37983;SDS011;64625;50.882;4.376;2023-04-15T10:37:56;6.25;;;4.00;;
37983;SDS011;64625;50.882;4.376;2023-04-15T10:40:22;7.18;;;4.30;;
37983;SDS011;64625;50.882;4.376;2023-04-15T10:42:52;7.82;;;5.15;;
37983;SDS011;64625;50.882;4.376;2023-04-15T10:45:20;14.50;;;4.15;;
37983;SDS011;64625;50.882;4.376;2023-04-15T10:48:19;5.75;;;3.13;;
37983;SDS011;64625;50.882;4.376;2023-04-15T10:50:40;5.03;;;2.80;;
37983;SDS011;64625;50.882;4.376;2023-04-15T10:53:25;10.75;;;3.03;;
37983;SDS011;64625;50.882;4.376;2023-04-15T10:55:56;7.32;;;2.15;;
37983;SDS011;64625;50.882;4.376;2023-04-15T10:58:23;2.08;;;1.88;;
37983;SDS011;64625;50.882;4.376;2023-04-15T11:00:50;8.45;;;2.45;;
37983;SDS011;64625;50.882;4.376;2023-04-15T11:03:21;5.38;;;2.33;;
37983;SDS011;64625;50.882;4.376;2023-04-15T11:06:06;3.40;;;2.67;;
37983;SDS011;64625;50.882;4.376;2023-04-15T11:11:21;4.47;;;2.95;;
37983;SDS011;64625;50.882;4.376;2023-04-15T11:13:50;6.43;;;2.72;;
37983;SDS011;64625;50.882;4.376;2023-04-15T11:16:19;8.45;;;3.47;;
37983;SDS011;64625;50.882;4.376;2023-04-15T11:18:54;7.18;;;4.03;;
37983;SDS011;64625;50.882;4.376;2023-04-15T11:21:23;11.23;;;4.03;;
37983;SDS011;64625;50.882;4.376;2023-04-15T11:23:51;6.43;;;3.08;;
37983;SDS011;64625;50.882;4.376;2023-04-15T11:26:17;9.48;;;3.92;;
37983;SDS011;64625;50.882;4.376;2023-04-15T11:28:43;9.07;;;3.13;;
37983;SDS011;64625;50.882;4.376;2023-04-15T11:31:13;5.53;;;3.55;;
37983;SDS011;64625;50.882;4.376;2023-04-15T11:33:45;3.83;;;2.70;;
37983;SDS011;64625;50.882;4.376;2023-04-15T11:36:17;4.68;;;2.95;;
37983;SDS011;64625;50.882;4.376;2023-04-15T11:38:45;4.03;;;2.72;;
37983;SDS011;64625;50.882;4.376;2023-04-15T11:41:11;4.82;;;2.03;;
37983;SDS011;64625;50.882;4.376;2023-04-15T11:43:37;2.85;;;2.03;;
37983;SDS011;64625;50.882;4.376;2023-04-15T11:46:03;3.25;;;2.10;;
37983;SDS011;64625;50.882;4.376;2023-04-15T11:48:30;5.35;;;2.67;;
37983;SDS011;64625;50.882;4.376;2023-04-15T11:51:03;5.18;;;2.63;;
37983;SDS011;64625;50.882;4.376;2023-04-15T11:53:40;4.05;;;2.88;;
37983;SDS011;64625;50.882;4.376;2023-04-15T11:56:11;4.88;;;2.80;;
37983;SDS011;64625;50.882;4.376;2023-04-15T11:58:45;4.03;;;2.60;;
37983;SDS011;64625;50.882;4.376;2023-04-15T12:01:14;3.65;;;1.95;;
37983;SDS011;64625;50.882;4.376;2023-04-15T12:03:41;3.05;;;2.10;;
37983;SDS011;64625;50.882;4.376;2023-04-15T12:06:13;3.97;;;2.35;;
37983;SDS011;64625;50.882;4.376;2023-04-15T12:08:56;3.20;;;2.20;;
37983;SDS011;64625;50.882;4.376;2023-04-15T12:13:57;4.70;;;3.00;;
37983;SDS011;64625;50.882;4.376;2023-04-15T12:16:24;6.30;;;3.38;;
37983;SDS011;64625;50.882;4.376;2023-04-15T12:18:56;5.68;;;3.00;;
37983;SDS011;64625;50.882;4.376;2023-04-15T12:21:24;5.65;;;2.92;;
37983;SDS011;64625;50.882;4.376;2023-04-15T12:23:55;4.15;;;2.60;;
37983;SDS011;64625;50.882;4.376;2023-04-15T12:26:28;3.75;;;2.33;;
37983;SDS011;64625;50.882;4.376;2023-04-15T12:29:09;8.35;;;2.78;;
37983;SDS011;64625;50.882;4.376;2023-04-15T12:31:42;7.20;;;2.47;;
37983;SDS011;64625;50.882;4.376;2023-04-15T12:34:13;3.08;;;1.75;;
37983;SDS011;64625;50.882;4.376;2023-04-15T12:36:42;5.78;;;2.00;;
37983;SDS011;64625;50.882;4.376;2023-04-15T12:39:08;3.22;;;1.95;;
37983;SDS011;64625;50.882;4.376;2023-04-15T12:41:34;2.22;;;1.67;;
37983;SDS011;64625;50.882;4.376;2023-04-15T12:44:00;5.28;;;2.88;;
37983;SDS011;64625;50.882;4.376;2023-04-15T12:46:26;6.28;;;2.75;;
37983;SDS011;64625;50.882;4.376;2023-04-15T12:48:52;3.88;;;2.10;;
37983;SDS011;64625;50.882;4.376;2023-04-15T12:51:18;3.30;;;1.80;;
37983;SDS011;64625;50.882;4.376;2023-04-15T12:53:47;2.25;;;1.75;;
37983;SDS011;64625;50.882;4.376;2023-04-15T12:56:14;5.85;;;1.90;;
37983;SDS011;64625;50.882;4.376;2023-04-15T12:58:42;6.75;;;2.00;;
37983;SDS011;64625;50.882;4.376;2023-04-15T13:01:08;4.22;;;2.00;;
37983;SDS011;64625;50.882;4.376;2023-04-15T13:03:35;5.93;;;1.90;;
37983;SDS011;64625;50.882;4.376;2023-04-15T13:06:02;5.60;;;2.53;;
37983;SDS011;64625;50.882;4.376;2023-04-15T13:08:29;6.68;;;2.38;;
37983;SDS011;64625;50.882;4.376;2023-04-15T13:10:56;9.20;;;2.92;;
37983;SDS011;64625;50.882;4.376;2023-04-15T13:13:22;3.58;;;2.00;;
37983;SDS011;64625;50.882;4.376;2023-04-15T13:15:47;6.28;;;2.50;;
37983;SDS011;64625;50.882;4.376;2023-04-15T13:18:13;3.10;;;1.98;;
37983;SDS011;64625;50.882;4.376;2023-04-15T13:20:39;9.32;;;2.80;;
37983;SDS011;64625;50.882;4.376;2023-04-15T13:23:05;7.60;;;2.75;;
37983;SDS011;64625;50.882;4.376;2023-04-15T13:25:31;10.32;;;4.15;;
37983;SDS011;64625;50.882;4.376;2023-04-15T13:27:58;4.60;;;3.38;;
37983;SDS011;64625;50.882;4.376;2023-04-15T13:30:25;3.35;;;2.55;;
37983;SDS011;64625;50.882;4.376;2023-04-15T13:32:53;6.28;;;2.35;;
37983;SDS011;64625;50.882;4.376;2023-04-15T13:35:19;7.25;;;2.65;;
37983;SDS011;64625;50.882;4.376;2023-04-15T13:37:48;4.32;;;2.22;;
37983;SDS011;64625;50.882;4.376;2023-04-15T13:40:14;2.88;;;2.53;;
37983;SDS011;64625;50.882;4.376;2023-04-15T13:42:41;6.03;;;4.38;;
37983;SDS011;64625;50.882;4.376;2023-04-15T13:45:07;9.13;;;2.83;;
37983;SDS011;64625;50.882;4.376;2023-04-15T13:47:33;11.80;;;5.25;;
37983;SDS011;64625;50.882;4.376;2023-04-15T13:49:59;2.90;;;1.90;;
37983;SDS011;64625;50.882;4.376;2023-04-15T13:52:25;3.30;;;1.92;;
37983;SDS011;64625;50.882;4.376;2023-04-15T13:54:51;4.68;;;1.73;;
37983;SDS011;64625;50.882;4.376;2023-04-15T13:57:17;8.43;;;1.63;;
37983;SDS011;64625;50.882;4.376;2023-04-15T13:59:43;5.53;;;2.63;;
37983;SDS011;64625;50.882;4.376;2023-04-15T14:02:09;5.93;;;2.38;;
37983;SDS011;64625;50.882;4.376;2023-04-15T14:04:35;6.18;;;1.95;;
37983;SDS011;64625;50.882;4.376;2023-04-15T14:07:01;10.38;;;2.10;;
37983;SDS011;64625;50.882;4.376;2023-04-15T14:09:27;6.85;;;2.17;;
37983;SDS011;64625;50.882;4.376;2023-04-15T14:11:53;3.78;;;1.75;;
37983;SDS011;64625;50.882;4.376;2023-04-15T14:14:20;4.85;;;1.65;;
37983;SDS011;64625;50.882;4.376;2023-04-15T14:16:46;5.40;;;1.92;;
37983;SDS011;64625;50.882;4.376;2023-04-15T14:19:13;4.32;;;2.53;;
37983;SDS011;64625;50.882;4.376;2023-04-15T14:21:39;5.35;;;2.13;;
37983;SDS011;64625;50.882;4.376;2023-04-15T14:24:05;7.60;;;1.73;;
37983;SDS011;64625;50.882;4.376;2023-04-15T14:26:30;1.70;;;1.38;;
37983;SDS011;64625;50.882;4.376;2023-04-15T14:28:56;5.63;;;1.73;;
37983;SDS011;64625;50.882;4.376;2023-04-15T14:31:22;3.97;;;1.40;;
37983;SDS011;64625;50.882;4.376;2023-04-15T14:33:48;2.10;;;0.88;;
37983;SDS011;64625;50.882;4.376;2023-04-15T14:36:14;2.38;;;0.80;;
37983;SDS011;64625;50.882;4.376;2023-04-15T14:38:41;6.25;;;1.13;;
37983;SDS011;64625;50.882;4.376;2023-04-15T14:41:07;4.00;;;0.90;;
37983;SDS011;64625;50.882;4.376;2023-04-15T14:43:34;3.78;;;1.25;;
37983;SDS011;64625;50.882;4.376;2023-04-15T14:46:00;3.38;;;1.60;;
37983;SDS011;64625;50.882;4.376;2023-04-15T14:48:26;2.10;;;1.10;;